Impacts TAF Board
For situational awareness. Not to be used for flight planning purposes.
IDs:

KIWA - Phoenix/Mesa Gateway, AZ, US

Issued at 1720 UTC 08 Aug 2020
Updated at 2100 UTC 08 Aug 2020
Potential Impact None Slight Moderate High
Time2047Z 08/21Z 08/22Z 08/23Z 09/00Z 09/01Z 09/02Z 09/03Z 09/04Z 09/05Z 09/06Z 09/07Z 09/08Z 09/09Z>>
Type OBS PRVL PRVL PRVL PRVL PRVL PRVL PRVL PRVL PRVL PRVL PRVL PRVL PRVL
VIS 10 >6 >6 >6 >6 >6 >6 >6 >6 >6 >6 >6 >6 >6
CIG -- -- -- -- -- -- -- -- -- -- -- -- -- --
Cover SCT FEW FEW FEW FEW FEW FEW FEW FEW FEW FEW FEW SKC SKC
FltCat VFR VFR VFR VFR VFR VFR VFR VFR VFR VFR VFR VFR VFR VFR
WX -- -- -- -- -- -- -- -- -- -- -- -- -- --
WDir 280 270 270 270 270 270 270 270 270 270 270 270 110 110
WSpd 5 7 7 7 7 7 7 7 7 7 7 7 6 6
WGst -- -- -- -- -- -- -- -- -- -- -- -- -- --
Raw TAF
KIWA 081720Z 0818/0918 VRB05KT P6SM FEW100
  FM081900 27007KT P6SM FEW100
  FM090800 11006KT P6SM SKC


Raw METAR
KIWA 082047Z 28005KT 10SM SCT200 42/05 A2988 RMK TCU DSNT N-SE
KIWA 081947Z 27005KT 10SM SCT200 40/08 A2990 RMK TCU DSNT N-SE
KIWA 081855Z 01003KT 10SM SCT200 39/09 A2992 RMK TCU DSNT N-SE
KIWA 081747Z 00000KT 10SM SCT200 38/09 A2994 RMK TCU DSNT ALQDS.

METAR Board
Radar Display
Forecast Discussion
For situational awareness. Not to be used for flight planning purposes.